sensor_id;sensor_type;location;lat;lon;timestamp;P1;durP1;ratioP1;P2;durP2;ratioP2
28252;SDS011;15515;45.588;5.276;2022-11-20T07:16:54;13.48;;;7.22;;
28252;SDS011;15515;45.588;5.276;2022-11-20T07:19:22;10.65;;;6.97;;
28252;SDS011;15515;45.588;5.276;2022-11-20T07:21:49;9.98;;;6.80;;
28252;SDS011;15515;45.588;5.276;2022-11-20T07:24:17;10.73;;;7.22;;
28252;SDS011;15515;45.588;5.276;2022-11-20T07:26:47;12.95;;;7.10;;
28252;SDS011;15515;45.588;5.276;2022-11-20T07:29:18;9.88;;;6.25;;
28252;SDS011;15515;45.588;5.276;2022-11-20T07:31:45;10.32;;;7.35;;
28252;SDS011;15515;45.588;5.276;2022-11-20T07:34:13;14.32;;;8.48;;
28252;SDS011;15515;45.588;5.276;2022-11-20T07:36:40;12.50;;;7.65;;
28252;SDS011;15515;45.588;5.276;2022-11-20T07:39:08;13.20;;;8.43;;
28252;SDS011;15515;45.588;5.276;2022-11-20T07:41:35;13.05;;;7.68;;
28252;SDS011;15515;45.588;5.276;2022-11-20T07:44:02;13.48;;;8.32;;
28252;SDS011;15515;45.588;5.276;2022-11-20T07:46:30;13.25;;;8.55;;
28252;SDS011;15515;45.588;5.276;2022-11-20T07:49:00;14.77;;;7.65;;
28252;SDS011;15515;45.588;5.276;2022-11-20T07:51:27;13.02;;;7.78;;
28252;SDS011;15515;45.588;5.276;2022-11-20T07:53:55;14.60;;;7.60;;
28252;SDS011;15515;45.588;5.276;2022-11-20T07:56:23;11.38;;;7.20;;
28252;SDS011;15515;45.588;5.276;2022-11-20T07:58:50;9.30;;;6.95;;
28252;SDS011;15515;45.588;5.276;2022-11-20T08:01:18;11.13;;;6.47;;
28252;SDS011;15515;45.588;5.276;2022-11-20T08:03:45;8.70;;;6.38;;
28252;SDS011;15515;45.588;5.276;2022-11-20T08:06:12;12.82;;;6.57;;
28252;SDS011;15515;45.588;5.276;2022-11-20T08:08:41;12.90;;;6.40;;
28252;SDS011;15515;45.588;5.276;2022-11-20T08:11:08;9.88;;;6.80;;
28252;SDS011;15515;45.588;5.276;2022-11-20T08:13:54;13.85;;;7.93;;
28252;SDS011;15515;45.588;5.276;2022-11-20T08:16:44;13.57;;;9.05;;
28252;SDS011;15515;45.588;5.276;2022-11-20T08:19:14;12.52;;;8.63;;
28252;SDS011;15515;45.588;5.276;2022-11-20T08:21:42;14.55;;;8.77;;
28252;SDS011;15515;45.588;5.276;2022-11-20T08:24:09;13.70;;;9.07;;
28252;SDS011;15515;45.588;5.276;2022-11-20T08:26:37;16.42;;;9.52;;
28252;SDS011;15515;45.588;5.276;2022-11-20T08:29:05;14.05;;;8.95;;
28252;SDS011;15515;45.588;5.276;2022-11-20T08:31:34;15.05;;;10.05;;
28252;SDS011;15515;45.588;5.276;2022-11-20T08:34:01;22.35;;;11.52;;
28252;SDS011;15515;45.588;5.276;2022-11-20T08:36:32;12.38;;;9.95;;
28252;SDS011;15515;45.588;5.276;2022-11-20T08:39:00;15.63;;;10.40;;
28252;SDS011;15515;45.588;5.276;2022-11-20T08:41:28;13.75;;;10.00;;
28252;SDS011;15515;45.588;5.276;2022-11-20T08:43:59;13.85;;;8.98;;
28252;SDS011;15515;45.588;5.276;2022-11-20T08:46:31;14.60;;;9.32;;
28252;SDS011;15515;45.588;5.276;2022-11-20T08:49:07;14.25;;;8.02;;
28252;SDS011;15515;45.588;5.276;2022-11-20T08:51:34;13.43;;;8.13;;
28252;SDS011;15515;45.588;5.276;2022-11-20T08:54:02;13.90;;;8.20;;
28252;SDS011;15515;45.588;5.276;2022-11-20T08:56:30;17.83;;;9.38;;
28252;SDS011;15515;45.588;5.276;2022-11-20T08:58:57;14.20;;;8.60;;
28252;SDS011;15515;45.588;5.276;2022-11-20T09:01:43;15.98;;;8.40;;
28252;SDS011;15515;45.588;5.276;2022-11-20T09:04:10;11.38;;;7.47;;
28252;SDS011;15515;45.588;5.276;2022-11-20T09:06:40;10.32;;;7.78;;
28252;SDS011;15515;45.588;5.276;2022-11-20T09:09:07;11.52;;;6.95;;
28252;SDS011;15515;45.588;5.276;2022-11-20T09:11:35;8.35;;;5.50;;
28252;SDS011;15515;45.588;5.276;2022-11-20T09:14:02;9.82;;;6.35;;
28252;SDS011;15515;45.588;5.276;2022-11-20T09:16:30;7.43;;;5.80;;
28252;SDS011;15515;45.588;5.276;2022-11-20T09:18:58;8.00;;;5.28;;
28252;SDS011;15515;45.588;5.276;2022-11-20T09:21:45;9.95;;;5.50;;
28252;SDS011;15515;45.588;5.276;2022-11-20T09:24:13;8.45;;;5.30;;
28252;SDS011;15515;45.588;5.276;2022-11-20T09:26:40;8.88;;;5.03;;
28252;SDS011;15515;45.588;5.276;2022-11-20T09:29:07;12.00;;;4.80;;
28252;SDS011;15515;45.588;5.276;2022-11-20T09:31:35;10.25;;;5.43;;
28252;SDS011;15515;45.588;5.276;2022-11-20T09:34:02;13.18;;;5.55;;
28252;SDS011;15515;45.588;5.276;2022-11-20T09:36:30;6.93;;;5.13;;
28252;SDS011;15515;45.588;5.276;2022-11-20T09:38:57;7.10;;;5.15;;
28252;SDS011;15515;45.588;5.276;2022-11-20T09:41:50;10.13;;;5.30;;
28252;SDS011;15515;45.588;5.276;2022-11-20T09:46:49;9.80;;;5.30;;
28252;SDS011;15515;45.588;5.276;2022-11-20T09:49:27;8.95;;;5.63;;
28252;SDS011;15515;45.588;5.276;2022-11-20T09:51:58;13.75;;;6.07;;
28252;SDS011;15515;45.588;5.276;2022-11-20T09:54:44;12.90;;;6.07;;
28252;SDS011;15515;45.588;5.276;2022-11-20T09:57:13;9.40;;;5.43;;
28252;SDS011;15515;45.588;5.276;2022-11-20T09:59:42;6.70;;;4.43;;
28252;SDS011;15515;45.588;5.276;2022-11-20T10:02:22;11.27;;;5.15;;
28252;SDS011;15515;45.588;5.276;2022-11-20T10:04:55;9.53;;;4.83;;
28252;SDS011;15515;45.588;5.276;2022-11-20T10:07:27;9.55;;;3.92;;
28252;SDS011;15515;45.588;5.276;2022-11-20T10:09:58;4.80;;;2.95;;
28252;SDS011;15515;45.588;5.276;2022-11-20T10:22:52;8.40;;;2.88;;
28252;SDS011;15515;45.588;5.276;2022-11-20T10:25:22;5.70;;;2.83;;
28252;SDS011;15515;45.588;5.276;2022-11-20T10:28:03;5.63;;;2.90;;
28252;SDS011;15515;45.588;5.276;2022-11-20T10:30:36;8.10;;;3.03;;
28252;SDS011;15515;45.588;5.276;2022-11-20T10:33:06;5.18;;;2.55;;
28252;SDS011;15515;45.588;5.276;2022-11-20T10:35:40;8.15;;;2.88;;
28252;SDS011;15515;45.588;5.276;2022-11-20T10:38:14;6.45;;;2.83;;
28252;SDS011;15515;45.588;5.276;2022-11-20T10:41:04;5.97;;;2.42;;
28252;SDS011;15515;45.588;5.276;2022-11-20T10:43:51;8.82;;;3.60;;
28252;SDS011;15515;45.588;5.276;2022-11-20T10:46:22;4.07;;;2.03;;
28252;SDS011;15515;45.588;5.276;2022-11-20T10:48:50;3.38;;;2.08;;
28252;SDS011;15515;45.588;5.276;2022-11-20T10:51:25;4.00;;;2.60;;
28252;SDS011;15515;45.588;5.276;2022-11-20T10:53:58;4.53;;;2.67;;
28252;SDS011;15515;45.588;5.276;2022-11-20T10:59:10;9.38;;;3.53;;
28252;SDS011;15515;45.588;5.276;2022-11-20T11:01:39;6.82;;;2.90;;
28252;SDS011;15515;45.588;5.276;2022-11-20T11:04:53;9.52;;;3.65;;
28252;SDS011;15515;45.588;5.276;2022-11-20T11:06:58;6.03;;;3.05;;
28252;SDS011;15515;45.588;5.276;2022-11-20T11:09:32;6.40;;;3.20;;
28252;SDS011;15515;45.588;5.276;2022-11-20T11:12:00;5.97;;;2.80;;
28252;SDS011;15515;45.588;5.276;2022-11-20T11:14:31;4.63;;;2.80;;
28252;SDS011;15515;45.588;5.276;2022-11-20T11:17:17;10.18;;;3.58;;
28252;SDS011;15515;45.588;5.276;2022-11-20T11:19:45;6.88;;;3.22;;
28252;SDS011;15515;45.588;5.276;2022-11-20T11:22:15;6.97;;;2.65;;
28252;SDS011;15515;45.588;5.276;2022-11-20T11:24:51;4.80;;;2.55;;
28252;SDS011;15515;45.588;5.276;2022-11-20T11:27:20;6.78;;;2.78;;
28252;SDS011;15515;45.588;5.276;2022-11-20T11:29:47;4.85;;;2.30;;
28252;SDS011;15515;45.588;5.276;2022-11-20T11:32:19;5.85;;;2.40;;
28252;SDS011;15515;45.588;5.276;2022-11-20T11:35:03;5.50;;;2.58;;
28252;SDS011;15515;45.588;5.276;2022-11-20T11:37:34;3.70;;;2.15;;
28252;SDS011;15515;45.588;5.276;2022-11-20T11:40:05;3.45;;;2.05;;
28252;SDS011;15515;45.588;5.276;2022-11-20T11:42:51;4.88;;;2.42;;
28252;SDS011;15515;45.588;5.276;2022-11-20T11:45:19;6.20;;;2.40;;
28252;SDS011;15515;45.588;5.276;2022-11-20T11:47:47;4.60;;;2.33;;
28252;SDS011;15515;45.588;5.276;2022-11-20T11:50:17;3.42;;;2.25;;
28252;SDS011;15515;45.588;5.276;2022-11-20T12:00:39;3.35;;;2.28;;
28252;SDS011;15515;45.588;5.276;2022-11-20T12:05:40;3.00;;;2.00;;
28252;SDS011;15515;45.588;5.276;2022-11-20T12:08:18;3.20;;;2.13;;
28252;SDS011;15515;45.588;5.276;2022-11-20T12:10:53;4.40;;;2.58;;
28252;SDS011;15515;45.588;5.276;2022-11-20T12:16:10;4.80;;;2.35;;
28252;SDS011;15515;45.588;5.276;2022-11-20T12:18:39;4.15;;;2.45;;
28252;SDS011;15515;45.588;5.276;2022-11-20T12:24:06;3.15;;;2.00;;
28252;SDS011;15515;45.588;5.276;2022-11-20T12:26:47;4.28;;;2.13;;
28252;SDS011;15515;45.588;5.276;2022-11-20T12:37:27;5.65;;;2.30;;
28252;SDS011;15515;45.588;5.276;2022-11-20T12:40:15;4.78;;;2.28;;
28252;SDS011;15515;45.588;5.276;2022-11-20T13:06:39;6.03;;;2.15;;
28252;SDS011;15515;45.588;5.276;2022-11-20T13:09:09;3.45;;;1.90;;
28252;SDS011;15515;45.588;5.276;2022-11-20T13:19:28;4.35;;;2.65;;
28252;SDS011;15515;45.588;5.276;2022-11-20T13:21:56;4.28;;;1.50;;
28252;SDS011;15515;45.588;5.276;2022-11-20T13:24:25;4.25;;;1.88;;
28252;SDS011;15515;45.588;5.276;2022-11-20T13:27:02;3.75;;;2.55;;
28252;SDS011;15515;45.588;5.276;2022-11-20T13:29:31;10.88;;;9.02;;
28252;SDS011;15515;45.588;5.276;2022-11-20T13:32:15;10.50;;;5.70;;
28252;SDS011;15515;45.588;5.276;2022-11-20T13:34:55;10.95;;;4.40;;
28252;SDS011;15515;45.588;5.276;2022-11-20T13:40:04;4.50;;;3.25;;
28252;SDS011;15515;45.588;5.276;2022-11-20T13:42:31;16.58;;;11.73;;
28252;SDS011;15515;45.588;5.276;2022-11-20T13:45:08;22.88;;;18.42;;
28252;SDS011;15515;45.588;5.276;2022-11-20T13:47:37;19.80;;;15.85;;
28252;SDS011;15515;45.588;5.276;2022-11-20T13:50:04;7.05;;;5.15;;
28252;SDS011;15515;45.588;5.276;2022-11-20T14:01:00;9.27;;;6.15;;
28252;SDS011;15515;45.588;5.276;2022-11-20T14:03:28;6.88;;;4.57;;
28252;SDS011;15515;45.588;5.276;2022-11-20T14:06:32;2.53;;;1.63;;
28252;SDS011;15515;45.588;5.276;2022-11-20T14:09:00;3.47;;;1.60;;
28252;SDS011;15515;45.588;5.276;2022-11-20T14:11:28;8.27;;;6.07;;
28252;SDS011;15515;45.588;5.276;2022-11-20T14:16:24;4.72;;;2.70;;
28252;SDS011;15515;45.588;5.276;2022-11-20T14:18:52;2.72;;;1.42;;
28252;SDS011;15515;45.588;5.276;2022-11-20T14:21:24;8.70;;;5.03;;
28252;SDS011;15515;45.588;5.276;2022-11-20T14:24:02;3.13;;;1.80;;
28252;SDS011;15515;45.588;5.276;2022-11-20T14:26:30;3.08;;;1.67;;
28252;SDS011;15515;45.588;5.276;2022-11-20T14:28:58;16.35;;;10.00;;
28252;SDS011;15515;45.588;5.276;2022-11-20T14:31:25;20.42;;;14.20;;
28252;SDS011;15515;45.588;5.276;2022-11-20T14:33:54;5.13;;;2.22;;
28252;SDS011;15515;45.588;5.276;2022-11-20T14:36:22;6.68;;;3.97;;
28252;SDS011;15515;45.588;5.276;2022-11-20T14:38:51;3.90;;;1.90;;
28252;SDS011;15515;45.588;5.276;2022-11-20T14:41:21;4.85;;;3.05;;
28252;SDS011;15515;45.588;5.276;2022-11-20T14:43:58;5.32;;;1.85;;
28252;SDS011;15515;45.588;5.276;2022-11-20T14:46:28;4.20;;;2.05;;
28252;SDS011;15515;45.588;5.276;2022-11-20T14:48:59;1.88;;;1.60;;
28252;SDS011;15515;45.588;5.276;2022-11-20T14:54:08;3.40;;;1.63;;
28252;SDS011;15515;45.588;5.276;2022-11-20T14:56:36;4.03;;;1.60;;
28252;SDS011;15515;45.588;5.276;2022-11-20T14:59:03;4.35;;;2.05;;
28252;SDS011;15515;45.588;5.276;2022-11-20T15:01:32;5.13;;;2.20;;
28252;SDS011;15515;45.588;5.276;2022-11-20T15:04:00;3.83;;;1.83;;
28252;SDS011;15515;45.588;5.276;2022-11-20T15:06:28;5.60;;;2.20;;
28252;SDS011;15515;45.588;5.276;2022-11-20T15:08:55;5.93;;;2.60;;
28252;SDS011;15515;45.588;5.276;2022-11-20T15:11:30;8.60;;;4.25;;
28252;SDS011;15515;45.588;5.276;2022-11-20T15:14:01;4.47;;;3.22;;
28252;SDS011;15515;45.588;5.276;2022-11-20T15:16:30;11.25;;;4.00;;
28252;SDS011;15515;45.588;5.276;2022-11-20T15:18:58;8.52;;;4.00;;
28252;SDS011;15515;45.588;5.276;2022-11-20T15:21:25;8.82;;;5.00;;
28252;SDS011;15515;45.588;5.276;2022-11-20T15:23:53;7.90;;;4.40;;
28252;SDS011;15515;45.588;5.276;2022-11-20T15:26:24;8.77;;;5.72;;
28252;SDS011;15515;45.588;5.276;2022-11-20T15:28:52;9.63;;;5.38;;
28252;SDS011;15515;45.588;5.276;2022-11-20T15:31:23;8.98;;;4.97;;
28252;SDS011;15515;45.588;5.276;2022-11-20T15:33:52;12.98;;;7.10;;
28252;SDS011;15515;45.588;5.276;2022-11-20T15:36:19;8.35;;;5.18;;
28252;SDS011;15515;45.588;5.276;2022-11-20T15:38:49;7.95;;;5.30;;
28252;SDS011;15515;45.588;5.276;2022-11-20T15:41:16;9.50;;;5.70;;
28252;SDS011;15515;45.588;5.276;2022-11-20T15:43:43;8.05;;;6.53;;
28252;SDS011;15515;45.588;5.276;2022-11-20T15:46:13;9.73;;;5.63;;
28252;SDS011;15515;45.588;5.276;2022-11-20T15:48:42;13.80;;;6.35;;
28252;SDS011;15515;45.588;5.276;2022-11-20T15:53:53;11.00;;;7.18;;
28252;SDS011;15515;45.588;5.276;2022-11-20T15:56:21;13.27;;;7.72;;
28252;SDS011;15515;45.588;5.276;2022-11-20T15:58:49;10.57;;;5.70;;
28252;SDS011;15515;45.588;5.276;2022-11-20T16:01:17;12.90;;;7.50;;
28252;SDS011;15515;45.588;5.276;2022-11-20T16:03:45;12.55;;;6.85;;
28252;SDS011;15515;45.588;5.276;2022-11-20T16:06:12;11.35;;;6.00;;
28252;SDS011;15515;45.588;5.276;2022-11-20T16:08:39;10.07;;;6.20;;
28252;SDS011;15515;45.588;5.276;2022-11-20T16:11:09;7.88;;;4.82;;
28252;SDS011;15515;45.588;5.276;2022-11-20T16:13:37;11.02;;;5.50;;
28252;SDS011;15515;45.588;5.276;2022-11-20T16:16:25;12.77;;;5.80;;
28252;SDS011;15515;45.588;5.276;2022-11-20T16:18:55;8.48;;;5.05;;
28252;SDS011;15515;45.588;5.276;2022-11-20T16:21:22;8.40;;;4.60;;
28252;SDS011;15515;45.588;5.276;2022-11-20T16:24:00;7.25;;;5.32;;
28252;SDS011;15515;45.588;5.276;2022-11-20T16:26:27;9.30;;;5.22;;
28252;SDS011;15515;45.588;5.276;2022-11-20T16:41:00;8.90;;;4.90;;
28252;SDS011;15515;45.588;5.276;2022-11-20T18:39:17;4.03;;;2.75;;
28252;SDS011;15515;45.588;5.276;2022-11-20T19:55:23;11.65;;;6.80;;
28252;SDS011;15515;45.588;5.276;2022-11-20T19:57:54;8.48;;;5.72;;
28252;SDS011;15515;45.588;5.276;2022-11-20T20:00:29;9.27;;;4.80;;
28252;SDS011;15515;45.588;5.276;2022-11-20T20:03:00;7.90;;;4.60;;
28252;SDS011;15515;45.588;5.276;2022-11-20T20:05:35;6.53;;;4.05;;
28252;SDS011;15515;45.588;5.276;2022-11-20T20:08:05;6.85;;;4.05;;
28252;SDS011;15515;45.588;5.276;2022-11-20T20:10:44;5.57;;;3.70;;
28252;SDS011;15515;45.588;5.276;2022-11-20T20:13:25;7.85;;;3.97;;
28252;SDS011;15515;45.588;5.276;2022-11-20T20:16:00;7.68;;;3.83;;
28252;SDS011;15515;45.588;5.276;2022-11-20T20:18:36;7.75;;;4.20;;
28252;SDS011;15515;45.588;5.276;2022-11-20T20:24:40;7.30;;;4.72;;
28252;SDS011;15515;45.588;5.276;2022-11-20T20:27:25;6.68;;;4.22;;
28252;SDS011;15515;45.588;5.276;2022-11-20T21:30:13;11.25;;;7.40;;
28252;SDS011;15515;45.588;5.276;2022-11-20T22:23:44;10.05;;;6.70;;
28252;SDS011;15515;45.588;5.276;2022-11-20T22:35:06;9.20;;;6.15;;
